Time;durP1;ratioP1;P1;durP2;ratioP2;P2;SDS_P1;SDS_P2;PMS_P1;PMS_P2;Temp;Humidity;BMP_temperature;BMP_pressure;BME280_temperature;BME280_humidity;BME280_pressure;Samples;Min_cycle;Max_cycle;Signal;HPM_P1;HPM_P2
2022/05/05 00:01:29;;;;;;;7.55;5.75;;;;;;;;;;5083783;28;20025;-89
2022/05/05 00:03:55;;;;;;;7.70;5.57;;;;;;;;;;5078220;28;20406;-88
2022/05/05 00:06:21;;;;;;;7.95;6.43;;;;;;;;;;5078419;28;20043;-89
2022/05/05 00:08:47;;;;;;;6.68;5.80;;;;;;;;;;5093294;28;20029;-86
2022/05/05 00:16:43;;;;;;;7.85;6.22;;;;;;;;;;5098468;28;20114;-87
2022/05/05 00:19:09;;;;;;;8.50;5.97;;;;;;;;;;5098209;28;20054;-88
2022/05/05 00:21:38;;;;;;;9.48;6.05;;;;;;;;;;5089017;28;20044;-87
2022/05/05 00:24:04;;;;;;;8.70;6.78;;;;;;;;;;5093771;28;20025;-87
2022/05/05 00:26:30;;;;;;;10.77;7.93;;;;;;;;;;5077700;28;20024;-87
2022/05/05 00:28:56;;;;;;;13.77;8.35;;;;;;;;;;5093272;28;20021;-87
2022/05/05 00:31:40;;;;;;;11.73;8.65;;;;;;;;;;5077899;28;20089;-88
2022/05/05 00:34:07;;;;;;;11.75;8.68;;;;;;;;;;5079232;28;20025;-88
2022/05/05 00:36:33;;;;;;;12.65;8.95;;;;;;;;;;5077817;28;20028;-88
2022/05/05 00:38:59;;;;;;;12.27;8.45;;;;;;;;;;5089848;28;20020;-88
2022/05/05 00:41:25;;;;;;;10.65;8.15;;;;;;;;;;5096427;28;20040;-89
2022/05/05 00:43:51;;;;;;;11.55;7.80;;;;;;;;;;5096602;28;20060;-88
2022/05/05 00:49:20;;;;;;;9.45;7.93;;;;;;;;;;5077643;28;20032;-87
2022/05/05 00:51:46;;;;;;;8.18;7.07;;;;;;;;;;5077294;28;20032;-87
2022/05/05 00:54:12;;;;;;;13.00;7.43;;;;;;;;;;5093122;28;20111;-88
2022/05/05 00:56:39;;;;;;;10.63;7.55;;;;;;;;;;5092718;28;20082;-87
2022/05/05 00:59:05;;;;;;;15.32;8.50;;;;;;;;;;5077660;28;20043;-87
2022/05/05 01:01:32;;;;;;;15.48;8.20;;;;;;;;;;5077762;28;20031;-88
2022/05/05 01:03:58;;;;;;;10.85;7.60;;;;;;;;;;5097076;28;20600;-88
2022/05/05 01:06:24;;;;;;;11.75;7.35;;;;;;;;;;5098757;28;20114;-88
2022/05/05 01:08:50;;;;;;;12.23;7.00;;;;;;;;;;5101764;28;20047;-87
2022/05/05 01:11:16;;;;;;;15.70;7.05;;;;;;;;;;5086351;28;20056;-88
2022/05/05 01:13:43;;;;;;;8.15;7.00;;;;;;;;;;5081109;28;20020;-88
2022/05/05 01:16:29;;;;;;;10.02;6.93;;;;;;;;;;5081160;28;20036;-87
2022/05/05 01:18:55;;;;;;;8.70;7.10;;;;;;;;;;5080953;28;20028;-87
2022/05/05 01:21:22;;;;;;;8.32;6.95;;;;;;;;;;5081255;28;20108;-88
2022/05/05 01:23:48;;;;;;;11.40;6.93;;;;;;;;;;5097011;28;20025;-88
2022/05/05 01:29:00;;;;;;;10.93;7.75;;;;;;;;;;5092855;28;20066;-87
2022/05/05 01:31:45;;;;;;;11.55;7.00;;;;;;;;;;5100868;28;20020;-86
2022/05/05 01:34:12;;;;;;;10.68;7.25;;;;;;;;;;5080774;28;20029;-87
2022/05/05 01:36:38;;;;;;;12.88;6.95;;;;;;;;;;5079817;28;20021;-88
2022/05/05 01:39:04;;;;;;;10.70;7.55;;;;;;;;;;5080564;28;20066;-88
2022/05/05 01:41:31;;;;;;;12.68;7.55;;;;;;;;;;5080141;28;20084;-87
2022/05/05 01:43:57;;;;;;;8.90;7.50;;;;;;;;;;5080552;28;20418;-88
2022/05/05 01:46:23;;;;;;;11.70;7.28;;;;;;;;;;5082761;28;20032;-88
2022/05/05 01:48:49;;;;;;;12.00;7.50;;;;;;;;;;5100948;28;20026;-88
2022/05/05 01:51:15;;;;;;;9.30;7.38;;;;;;;;;;5100743;28;20027;-86
2022/05/05 01:53:41;;;;;;;9.90;7.30;;;;;;;;;;5100643;28;20069;-87
2022/05/05 01:56:11;;;;;;;7.93;7.13;;;;;;;;;;5100934;28;20024;-87
2022/05/05 01:58:38;;;;;;;10.48;8.82;;;;;;;;;;5083676;28;20048;-86
2022/05/05 02:04:08;;;;;;;8.95;8.05;;;;;;;;;;5091273;28;20385;-86
2022/05/05 02:06:35;;;;;;;10.10;7.95;;;;;;;;;;5119576;28;20377;-86
2022/05/05 02:09:01;;;;;;;12.60;7.75;;;;;;;;;;5115490;28;20401;-87
2022/05/05 02:11:27;;;;;;;10.02;7.25;;;;;;;;;;5100429;28;20127;-86
2022/05/05 02:13:53;;;;;;;12.27;7.68;;;;;;;;;;5098561;28;20043;-86
2022/05/05 02:16:20;;;;;;;9.75;8.18;;;;;;;;;;5100186;28;20111;-86
2022/05/05 02:18:46;;;;;;;9.55;7.70;;;;;;;;;;5100414;28;20326;-86
2022/05/05 02:21:12;;;;;;;8.68;7.00;;;;;;;;;;5105507;28;20056;-86
2022/05/05 02:23:38;;;;;;;10.23;7.43;;;;;;;;;;5120394;28;20040;-87
2022/05/05 02:26:05;;;;;;;9.98;6.97;;;;;;;;;;5119013;28;20131;-86
2022/05/05 02:28:31;;;;;;;11.35;7.63;;;;;;;;;;5119069;28;20066;-86
2022/05/05 02:30:58;;;;;;;8.85;7.55;;;;;;;;;;5120506;28;20072;-86
2022/05/05 02:33:24;;;;;;;8.80;7.40;;;;;;;;;;5120366;28;20020;-88
2022/05/05 02:38:42;;;;;;;8.73;7.57;;;;;;;;;;5092438;28;20078;-88
2022/05/05 02:38:46;;;;;;;8.32;7.43;;;;;;;;;;5081975;28;20032;-88
2022/05/05 02:41:12;;;;;;;11.80;8.45;;;;;;;;;;5099749;28;20094;-88
2022/05/05 02:43:39;;;;;;;9.10;7.97;;;;;;;;;;5098989;28;20016;-88
2022/05/05 02:46:05;;;;;;;10.48;8.57;;;;;;;;;;5098414;28;20051;-88
2022/05/05 02:48:31;;;;;;;13.95;8.00;;;;;;;;;;5097813;28;20064;-89
2022/05/05 02:50:57;;;;;;;8.98;8.05;;;;;;;;;;5099566;28;20028;-89
2022/05/05 02:56:07;;;;;;;8.73;7.82;;;;;;;;;;5085841;28;20071;-90
2022/05/05 02:58:33;;;;;;;11.00;7.90;;;;;;;;;;5109862;28;20029;-89
2022/05/05 03:01:00;;;;;;;8.68;7.63;;;;;;;;;;5083528;28;20020;-88
2022/05/05 03:03:26;;;;;;;12.43;8.13;;;;;;;;;;5086910;28;20074;-89
2022/05/05 03:05:52;;;;;;;9.27;8.18;;;;;;;;;;5095867;28;20032;-90
2022/05/05 03:08:18;;;;;;;11.00;8.23;;;;;;;;;;5080094;28;20317;-87
2022/05/05 03:10:44;;;;;;;9.32;7.78;;;;;;;;;;5095590;28;20498;-87
2022/05/05 03:13:10;;;;;;;9.75;7.95;;;;;;;;;;5078874;28;20064;-87
2022/05/05 03:18:42;;;;;;;11.98;8.80;;;;;;;;;;5090186;28;20035;-88
2022/05/05 03:21:08;;;;;;;9.82;7.40;;;;;;;;;;5097966;28;20437;-88
2022/05/05 03:23:35;;;;;;;10.77;7.45;;;;;;;;;;5087666;28;20092;-87
2022/05/05 03:26:01;;;;;;;9.65;7.78;;;;;;;;;;5077916;28;20028;-87
2022/05/05 03:28:27;;;;;;;10.18;8.02;;;;;;;;;;5082710;28;20012;-87
2022/05/05 03:31:12;;;;;;;12.32;8.15;;;;;;;;;;5097136;28;20051;-87
2022/05/05 03:33:38;;;;;;;10.30;7.93;;;;;;;;;;5080101;28;20024;-88
2022/05/05 03:36:04;;;;;;;8.70;7.68;;;;;;;;;;5097632;28;20059;-87
2022/05/05 03:38:31;;;;;;;12.38;7.68;;;;;;;;;;5096912;28;20020;-87
2022/05/05 03:40:57;;;;;;;10.35;8.27;;;;;;;;;;5086044;28;20087;-86
2022/05/05 03:43:23;;;;;;;13.65;8.55;;;;;;;;;;5089028;28;20418;-85
2022/05/05 03:48:52;;;;;;;11.93;8.63;;;;;;;;;;5109616;28;20027;-88
2022/05/05 03:51:18;;;;;;;11.00;8.07;;;;;;;;;;5097565;28;20130;-94
2022/05/05 03:56:55;;;;;;;13.70;9.18;;;;;;;;;;5067658;28;20138;-93
2022/05/05 03:59:24;;;;;;;10.88;9.20;;;;;;;;;;5039907;28;20034;-95
2022/05/05 04:01:50;;;;;;;14.27;9.10;;;;;;;;;;5058681;28;20419;-96
2022/05/05 04:04:17;;;;;;;12.85;9.80;;;;;;;;;;5056151;28;20025;-95
2022/05/05 04:06:43;;;;;;;12.70;10.63;;;;;;;;;;5037076;28;20122;-95
2022/05/05 04:09:10;;;;;;;16.80;10.45;;;;;;;;;;5037474;28;20022;-96
2022/05/05 04:11:36;;;;;;;12.85;11.43;;;;;;;;;;5053478;28;20061;-95
2022/05/05 04:14:03;;;;;;;14.95;11.93;;;;;;;;;;5054670;28;20040;-96
2022/05/05 04:16:31;;;;;;;14.05;12.63;;;;;;;;;;5039190;28;20021;-96
2022/05/05 04:18:58;;;;;;;15.07;11.30;;;;;;;;;;5038355;28;20035;-96
2022/05/05 04:21:24;;;;;;;16.38;11.48;;;;;;;;;;5037786;28;20076;-94
2022/05/05 04:23:51;;;;;;;13.85;11.25;;;;;;;;;;5039140;28;20040;-94
2022/05/05 04:26:17;;;;;;;12.23;10.35;;;;;;;;;;5040727;28;20040;-96
2022/05/05 04:28:44;;;;;;;18.42;11.02;;;;;;;;;;5040626;28;20407;-95
2022/05/05 04:31:17;;;;;;;15.68;10.85;;;;;;;;;;5041558;28;20029;-96
2022/05/05 04:33:43;;;;;;;14.88;10.93;;;;;;;;;;5065658;28;20035;-96
2022/05/05 04:36:10;;;;;;;15.60;11.02;;;;;;;;;;5098932;28;20025;-95
2022/05/05 04:38:37;;;;;;;12.93;10.73;;;;;;;;;;5083158;28;20044;-95
2022/05/05 04:41:03;;;;;;;17.90;11.07;;;;;;;;;;5082535;28;20068;-96
2022/05/05 04:43:29;;;;;;;16.10;11.65;;;;;;;;;;5098988;28;20017;-95
2022/05/05 04:45:55;;;;;;;15.65;11.73;;;;;;;;;;5082735;28;20318;-95
2022/05/05 04:48:22;;;;;;;13.75;11.10;;;;;;;;;;5083122;28;20358;-96
2022/05/05 04:50:48;;;;;;;14.63;11.02;;;;;;;;;;5098354;28;20070;-95
2022/05/05 04:53:14;;;;;;;12.63;10.57;;;;;;;;;;5082706;28;20314;-96
2022/05/05 04:55:40;;;;;;;17.88;10.98;;;;;;;;;;5082696;28;20032;-96
2022/05/05 04:58:06;;;;;;;15.50;11.25;;;;;;;;;;5082691;28;20058;-95
2022/05/05 05:00:33;;;;;;;13.25;10.05;;;;;;;;;;5082683;28;20031;-95
2022/05/05 05:02:59;;;;;;;13.80;10.95;;;;;;;;;;5082499;28;20029;-96
2022/05/05 05:05:25;;;;;;;14.35;10.82;;;;;;;;;;5082271;28;20024;-95
2022/05/05 05:07:51;;;;;;;14.35;10.50;;;;;;;;;;5081592;28;20021;-96
2022/05/05 05:10:17;;;;;;;16.98;10.52;;;;;;;;;;5081958;28;20105;-96
2022/05/05 05:12:44;;;;;;;12.63;11.30;;;;;;;;;;5097606;28;20029;-96
2022/05/05 05:15:11;;;;;;;13.32;11.23;;;;;;;;;;5097845;28;20047;-96
2022/05/05 05:17:37;;;;;;;15.65;11.85;;;;;;;;;;5080974;28;20032;-95
2022/05/05 05:20:04;;;;;;;13.18;11.00;;;;;;;;;;5082611;28;20028;-96
2022/05/05 05:22:30;;;;;;;13.23;11.55;;;;;;;;;;5080320;28;20025;-96
2022/05/05 05:24:56;;;;;;;15.35;11.77;;;;;;;;;;5095054;28;20017;-95
2022/05/05 05:27:22;;;;;;;15.00;12.60;;;;;;;;;;5078784;28;20102;-96
2022/05/05 05:29:48;;;;;;;16.38;12.30;;;;;;;;;;5078467;28;20403;-96
2022/05/05 05:32:14;;;;;;;15.65;12.13;;;;;;;;;;5078721;28;20418;-95
2022/05/05 05:34:41;;;;;;;18.20;12.15;;;;;;;;;;5079597;28;20037;-95
2022/05/05 05:37:08;;;;;;;20.13;12.32;;;;;;;;;;5092225;28;20036;-95
2022/05/05 05:39:35;;;;;;;19.67;12.57;;;;;;;;;;5087266;28;20063;-95
2022/05/05 05:42:22;;;;;;;16.17;12.15;;;;;;;;;;5093380;28;20039;-96
2022/05/05 05:44:48;;;;;;;13.45;11.73;;;;;;;;;;5092065;28;20017;-96
2022/05/05 05:47:34;;;;;;;16.25;12.55;;;;;;;;;;5086823;28;20025;-96
2022/05/05 05:50:00;;;;;;;19.02;14.10;;;;;;;;;;5088218;28;20029;-96
2022/05/05 05:52:28;;;;;;;28.92;15.02;;;;;;;;;;5086289;28;20033;-96
2022/05/05 05:57:30;;;;;;;23.50;16.60;;;;;;;;;;5129234;22;20067;-96
2022/05/05 05:59:57;;;;;;;26.83;20.05;;;;;;;;;;5082475;28;20028;-95
2022/05/05 06:05:08;;;;;;;26.27;17.92;;;;;;;;;;5087618;28;20141;-96
2022/05/05 06:07:34;;;;;;;20.13;15.65;;;;;;;;;;5086948;28;20024;-95
2022/05/05 06:10:00;;;;;;;19.33;14.98;;;;;;;;;;5091345;28;20029;-96
2022/05/05 06:12:27;;;;;;;23.55;14.35;;;;;;;;;;5090423;28;20058;-95
2022/05/05 06:14:53;;;;;;;18.05;13.45;;;;;;;;;;5088714;28;20025;-96
2022/05/05 06:17:20;;;;;;;19.80;14.07;;;;;;;;;;5087292;28;20028;-96
2022/05/05 06:19:46;;;;;;;21.52;15.30;;;;;;;;;;5087997;28;20096;-95
2022/05/05 06:22:12;;;;;;;20.83;15.88;;;;;;;;;;5085004;28;20029;-96
2022/05/05 06:24:38;;;;;;;22.23;16.85;;;;;;;;;;5087085;28;20028;-96
2022/05/05 06:27:04;;;;;;;23.23;16.52;;;;;;;;;;5086273;28;20024;-96
2022/05/05 06:29:31;;;;;;;20.90;16.10;;;;;;;;;;5085324;28;20016;-96
2022/05/05 06:31:57;;;;;;;21.33;16.58;;;;;;;;;;5086659;28;20327;-96
2022/05/05 06:34:23;;;;;;;23.15;18.38;;;;;;;;;;5088394;28;20075;-96
2022/05/05 06:36:49;;;;;;;20.23;16.45;;;;;;;;;;5092951;28;20039;-96
2022/05/05 06:39:15;;;;;;;20.17;14.65;;;;;;;;;;5091750;28;20088;-95
2022/05/05 06:41:42;;;;;;;18.45;15.23;;;;;;;;;;5090210;28;20024;-95
2022/05/05 06:44:08;;;;;;;25.45;17.15;;;;;;;;;;5093080;28;20020;-96
2022/05/05 06:46:34;;;;;;;21.20;16.95;;;;;;;;;;5092344;28;20044;-96
2022/05/05 06:49:01;;;;;;;21.73;16.35;;;;;;;;;;5091954;28;20051;-96
2022/05/05 06:51:27;;;;;;;19.27;14.05;;;;;;;;;;5076453;28;20054;-96
2022/05/05 06:53:53;;;;;;;16.65;13.13;;;;;;;;;;5090624;28;20039;-96
2022/05/05 06:56:20;;;;;;;16.83;14.48;;;;;;;;;;5091439;28;20376;-96
2022/05/05 06:58:46;;;;;;;22.38;14.73;;;;;;;;;;5092094;28;20037;-96
2022/05/05 07:06:42;;;;;;;16.23;13.93;;;;;;;;;;5092609;28;20044;-96
2022/05/05 07:11:54;;;;;;;22.30;15.30;;;;;;;;;;5093770;28;20100;-96
2022/05/05 07:14:20;;;;;;;23.58;15.50;;;;;;;;;;5075361;28;20045;-96
2022/05/05 07:16:47;;;;;;;20.63;16.38;;;;;;;;;;5093127;28;20044;-96
2022/05/05 07:19:14;;;;;;;20.40;16.08;;;;;;;;;;5092966;28;20020;-96
2022/05/05 07:21:40;;;;;;;19.75;15.75;;;;;;;;;;5093085;28;20045;-96
2022/05/05 07:24:09;;;;;;;22.23;13.73;;;;;;;;;;5092527;28;20035;-96
2022/05/05 07:26:36;;;;;;;20.55;16.38;;;;;;;;;;5092570;28;20020;-96
2022/05/05 07:29:02;;;;;;;19.25;13.20;;;;;;;;;;5073753;28;20036;-96
2022/05/05 07:31:28;;;;;;;24.27;13.32;;;;;;;;;;5089750;28;20479;-96
2022/05/05 07:33:57;;;;;;;17.52;12.52;;;;;;;;;;5085578;28;20403;-96
2022/05/05 07:36:31;;;;;;;15.98;12.30;;;;;;;;;;5088271;28;20043;-96
2022/05/05 07:38:57;;;;;;;16.58;11.90;;;;;;;;;;5093644;28;20036;-96
2022/05/05 07:41:47;;;;;;;15.88;12.48;;;;;;;;;;5094988;28;20029;-96
2022/05/05 07:44:15;;;;;;;16.05;12.95;;;;;;;;;;5096102;28;20018;-96
2022/05/05 07:46:50;;;;;;;12.38;10.75;;;;;;;;;;5097194;28;20024;-96
2022/05/05 07:54:34;;;;;;;15.32;11.80;;;;;;;;;;5772552;22;20053;-96
2022/05/05 07:57:00;;;;;;;17.33;11.20;;;;;;;;;;5043667;28;20115;-95
2022/05/05 07:59:26;;;;;;;13.80;9.73;;;;;;;;;;5048909;28;20033;-94
2022/05/05 08:04:28;;;;;;;21.42;15.57;;;;;;;;;;5961271;22;20250;-96
2022/05/05 08:06:54;;;;;;;13.23;10.23;;;;;;;;;;5038225;28;20045;-93
2022/05/05 08:09:21;;;;;;;39.95;23.90;;;;;;;;;;5041234;28;20036;-96
2022/05/05 08:11:48;;;;;;;35.50;24.42;;;;;;;;;;5037815;28;20025;-92
2022/05/05 08:14:15;;;;;;;10.82;9.27;;;;;;;;;;5039455;28;20042;-94
2022/05/05 08:16:41;;;;;;;15.13;10.35;;;;;;;;;;5039229;28;20160;-93
